Terminal Aerodrome Forecast
Issued by NWS

Home | Current Version | Previous Version | Text Only | Print | Product List | Glossary On
Versions: 1 2 3 4 5 6 7 8 9 10 11 12 13 14 15 16 17 18 19 20 21 22 23 24 25 26 27 28 29 30 31 32 33 34 35 36
000
FTUS43 KDDC 130549 RRA
TAFGCK
TAF
KGCK 130549Z 1306/1406 11012KT P6SM OVC015
     FM130900 14012KT P6SM OVC010
      TEMPO 1309/1313 5SM -DZSN OVC007
     FM131500 15015G23KT P6SM OVC020
     FM131800 17018G25KT P6SM SCT050
     FM140000 13012KT P6SM SKC=

USA.gov is the U.S. government's official web portal to all federal, state and local government web resources and services.